Wetterdaten: Woche 28.11.16 - 04.12.16 (KW48)
Datum Zeit Temp. A. Feuchte A. Luftdruck Regen Wind Richtung Sonnenschein ET UV Solar Taupunkt Windchill Windben Empfang
28.11.2016 00:00 2,1 C 94 % 1018,5 hPa 0,0 l/m 1,2 km/h (1 Bft) NW 0,00 h 0,000 mm 0,0 UV-I 0 W/m 1,2 C 2,1 C 3,0 km/h (1 Bft) 98,75 %
28.11.2016 01:00 0,9 C 94 % 1018,7 hPa 0,0 l/m 1,3 km/h (1 Bft) NW 0,00 h 0,000 mm 0,0 UV-I 0 W/m 0,1 C 0,9 C 2,8 km/h (1 Bft) 97,80 %
28.11.2016 02:00 0,2 C 95 % 1019,3 hPa 0,0 l/m 3,0 km/h (1 Bft) W-SW 0,00 h 0,000 mm 0,0 UV-I 0 W/m -0,5 C 0,2 C 4,6 km/h (1 Bft) 98,61 %
28.11.2016 03:00 -0,3 C 94 % 1019,7 hPa 0,0 l/m 1,3 km/h (1 Bft) W 0,00 h 0,000 mm 0,0 UV-I 0 W/m -1,1 C -0,3 C 3,1 km/h (1 Bft) 98,24 %
28.11.2016 04:00 -0,9 C 94 % 1020,1 hPa 0,0 l/m 1,6 km/h (1 Bft) W 0,00 h 0,000 mm 0,0 UV-I 0 W/m -1,7 C -0,9 C 3,2 km/h (1 Bft) 98,55 %
28.11.2016 05:00 -1,2 C 95 % 1020,5 hPa 0,0 l/m 2,2 km/h (1 Bft) W-SW 0,00 h 0,000 mm 0,0 UV-I 0 W/m -1,9 C -1,2 C 4,0 km/h (1 Bft) 98,72 %
28.11.2016 06:00 -1,5 C 96 % 1021,0 hPa 0,0 l/m 2,2 km/h (1 Bft) S-SW 0,00 h 0,000 mm 0,0 UV-I 0 W/m -2,1 C -1,5 C 4,1 km/h (1 Bft) 97,73 %
28.11.2016 07:00 -1,6 C 96 % 1021,9 hPa 0,0 l/m 2,6 km/h (1 Bft) W 0,07 h 0,000 mm 0,0 UV-I 11 W/m -2,2 C -1,6 C 4,5 km/h (1 Bft) 98,70 %
28.11.2016 08:00 -1,2 C 96 % 1022,8 hPa 0,0 l/m 2,1 km/h (1 Bft) W 0,00 h 0,000 mm 0,0 UV-I 24 W/m -1,8 C -1,2 C 3,8 km/h (1 Bft) 97,32 %
28.11.2016 09:00 -0,5 C 94 % 1023,4 hPa 0,0 l/m 1,9 km/h (1 Bft) W 0,83 h 0,000 mm 0,0 UV-I 203 W/m -1,4 C -0,5 C 3,5 km/h (1 Bft) 99,31 %
28.11.2016 10:00 0,8 C 82 % 1024,1 hPa 0,0 l/m 1,4 km/h (1 Bft) W 0,97 h 0,076 mm 0,5 UV-I 296 W/m -1,8 C 0,8 C 3,4 km/h (1 Bft) 98,57 %
28.11.2016 11:00 1,1 C 72 % 1024,3 hPa 0,0 l/m 4,1 km/h (1 Bft) N-NW 0,57 h 0,102 mm 0,6 UV-I 230 W/m -3,5 C 0,7 C 8,7 km/h (2 Bft) 98,41 %
28.11.2016 12:00 1,6 C 62 % 1024,5 hPa 0,0 l/m 5,0 km/h (1 Bft) NW 0,80 h 0,101 mm 0,6 UV-I 320 W/m -4,9 C 1,5 C 10,9 km/h (2 Bft) 98,30 %
28.11.2016 13:00 2,0 C 58 % 1025,0 hPa 0,0 l/m 4,5 km/h (1 Bft) N-NW 0,97 h 0,127 mm 0,5 UV-I 339 W/m -5,3 C 2,0 C 10,2 km/h (2 Bft) 99,44 %
28.11.2016 14:00 1,7 C 59 % 1025,5 hPa 0,0 l/m 3,1 km/h (1 Bft) NW 0,23 h 0,127 mm 0,0 UV-I 119 W/m -5,5 C 1,4 C 6,7 km/h (2 Bft) 98,79 %
28.11.2016 15:00 1,2 C 62 % 1026,3 hPa 0,0 l/m 3,6 km/h (1 Bft) N-NW 0,10 h 0,051 mm 0,0 UV-I 30 W/m -5,2 C 1,1 C 8,0 km/h (2 Bft) 99,02 %
28.11.2016 16:00 0,2 C 72 % 1027,2 hPa 0,0 l/m 7,1 km/h (2 Bft) O-NO 0,03 h 0,026 mm 0,0 UV-I 7 W/m -4,2 C -1,6 C 11,2 km/h (2 Bft) 98,22 %
28.11.2016 17:00 -1,0 C 79 % 1028,0 hPa 0,0 l/m 1,2 km/h (1 Bft) O-NO 0,00 h 0,025 mm 0,0 UV-I 0 W/m -4,2 C -1,0 C 2,2 km/h (1 Bft) 99,06 %
28.11.2016 18:00 -1,8 C 86 % 1028,8 hPa 0,0 l/m 0,5 km/h (0 Bft) NO 0,00 h 0,000 mm 0,0 UV-I 0 W/m -3,8 C -1,8 C 1,4 km/h (1 Bft) 97,89 %
28.11.2016 19:00 -2,0 C 85 % 1029,4 hPa 0,0 l/m 1,2 km/h (1 Bft) O-SO 0,00 h 0,000 mm 0,0 UV-I 0 W/m -4,2 C -2,0 C 2,8 km/h (1 Bft) 98,85 %
28.11.2016 20:00 -1,4 C 82 % 1029,8 hPa 0,0 l/m 1,1 km/h (1 Bft) SO 0,00 h 0,000 mm 0,0 UV-I 0 W/m -4,1 C -1,4 C 2,5 km/h (1 Bft) 98,18 %
28.11.2016 21:00 -1,0 C 79 % 1030,4 hPa 0,0 l/m 1,7 km/h (1 Bft) N-NO 0,00 h 0,000 mm 0,0 UV-I 0 W/m -4,1 C -1,3 C 3,5 km/h (1 Bft) 99,43 %
28.11.2016 22:00 -1,2 C 80 % 1030,9 hPa 0,0 l/m 1,0 km/h (0 Bft) W-SW 0,00 h 0,000 mm 0,0 UV-I 0 W/m -4,2 C -1,2 C 2,2 km/h (1 Bft) 97,86 %
28.11.2016 23:00 -0,9 C 79 % 1031,3 hPa 0,0 l/m 0,7 km/h (0 Bft) W-SW 0,00 h 0,000 mm 0,0 UV-I 0 W/m -4,0 C -0,9 C 2,0 km/h (1 Bft) 98,96 %
29.11.2016 00:00 -1,1 C 81 % 1031,5 hPa 0,0 l/m 0,6 km/h (0 Bft) W-SW 0,00 h 0,000 mm 0,0 UV-I 0 W/m -4,0 C -1,1 C 1,9 km/h (1 Bft) 97,59 %
29.11.2016 01:00 -2,2 C 84 % 1031,6 hPa 0,0 l/m 0,8 km/h (0 Bft) W-SW 0,00 h 0,000 mm 0,0 UV-I 0 W/m -4,4 C -2,2 C 1,9 km/h (1 Bft) 99,17 %
29.11.2016 02:00 -2,9 C 89 % 1031,8 hPa 0,0 l/m 0,4 km/h (0 Bft) W-SW 0,00 h 0,000 mm 0,0 UV-I 0 W/m -4,5 C -2,9 C 1,2 km/h (1 Bft) 98,16 %
29.11.2016 03:00 -3,3 C 90 % 1031,8 hPa 0,0 l/m 0,4 km/h (0 Bft) W-SW 0,00 h 0,000 mm 0,0 UV-I 0 W/m -4,7 C -3,3 C 1,3 km/h (1 Bft) 99,10 %
29.11.2016 04:00 -3,7 C 91 % 1032,2 hPa 0,0 l/m 1,2 km/h (1 Bft) W-SW 0,00 h 0,000 mm 0,0 UV-I 0 W/m -5,0 C -3,7 C 2,3 km/h (1 Bft) 98,21 %
29.11.2016 05:00 -3,7 C 91 % 1032,7 hPa 0,0 l/m 1,9 km/h (1 Bft) W-SW 0,00 h 0,000 mm 0,0 UV-I 0 W/m -5,0 C -3,7 C 3,1 km/h (1 Bft) 99,30 %
29.11.2016 06:00 -3,0 C 90 % 1033,3 hPa 0,0 l/m 3,0 km/h (1 Bft) N-NO 0,00 h 0,000 mm 0,0 UV-I 0 W/m -4,4 C -3,0 C 4,5 km/h (1 Bft) 98,00 %
29.11.2016 07:00 -2,7 C 88 % 1033,7 hPa 0,0 l/m 2,1 km/h (1 Bft) N-NO 0,03 h 0,000 mm 0,0 UV-I 10 W/m -4,4 C -2,7 C 4,1 km/h (1 Bft) 99,64 %
29.11.2016 08:00 -2,3 C 86 % 1034,1 hPa 0,0 l/m 3,1 km/h (1 Bft) O 0,27 h 0,000 mm 0,0 UV-I 77 W/m -4,3 C -2,3 C 4,9 km/h (1 Bft) 97,66 %
29.11.2016 09:00 -1,2 C 79 % 1034,4 hPa 0,0 l/m 4,2 km/h (1 Bft) O-NO 1,00 h 0,025 mm 0,0 UV-I 225 W/m -4,3 C -1,3 C 6,4 km/h (2 Bft) 98,46 %
29.11.2016 10:00 -0,3 C 73 % 1034,6 hPa 0,0 l/m 5,2 km/h (1 Bft) O-NO 1,00 h 0,077 mm 0,5 UV-I 311 W/m -4,6 C -0,4 C 7,6 km/h (2 Bft) 98,58 %
29.11.2016 11:00 0,2 C 70 % 1034,3 hPa 0,0 l/m 3,8 km/h (1 Bft) NO 1,00 h 0,101 mm 0,7 UV-I 354 W/m -4,6 C 0,2 C 7,0 km/h (2 Bft) 98,87 %
29.11.2016 12:00 0,6 C 68 % 1034,1 hPa 0,0 l/m 3,9 km/h (1 Bft) O-NO 1,00 h 0,127 mm 0,6 UV-I 345 W/m -4,7 C 0,6 C 7,3 km/h (2 Bft) 99,20 %
29.11.2016 13:00 0,8 C 65 % 1033,8 hPa 0,0 l/m 3,8 km/h (1 Bft) NO 1,00 h 0,127 mm 0,5 UV-I 285 W/m -4,9 C 0,8 C 6,4 km/h (2 Bft) 98,64 %
29.11.2016 14:00 0,6 C 65 % 1033,5 hPa 0,0 l/m 2,0 km/h (1 Bft) NO 1,00 h 0,102 mm 0,0 UV-I 188 W/m -5,2 C 0,6 C 4,2 km/h (1 Bft) 98,60 %
29.11.2016 15:00 0,2 C 67 % 1033,4 hPa 0,0 l/m 1,0 km/h (0 Bft) O-NO 1,00 h 0,076 mm 0,0 UV-I 74 W/m -5,2 C 0,2 C 2,2 km/h (1 Bft) 98,90 %
29.11.2016 16:00 -1,2 C 77 % 1033,4 hPa 0,0 l/m 2,1 km/h (1 Bft) O-NO 0,03 h 0,025 mm 0,0 UV-I 9 W/m -4,7 C -1,2 C 3,0 km/h (1 Bft) 99,15 %
29.11.2016 17:00 -1,9 C 81 % 1033,8 hPa 0,0 l/m 2,3 km/h (1 Bft) O-NO 0,00 h 0,000 mm 0,0 UV-I 0 W/m -4,8 C -1,9 C 3,6 km/h (1 Bft) 98,74 %
29.11.2016 18:00 -2,6 C 85 % 1034,1 hPa 0,0 l/m 0,8 km/h (0 Bft) O-NO 0,00 h 0,000 mm 0,0 UV-I 0 W/m -4,7 C -2,6 C 1,9 km/h (1 Bft) 98,20 %
29.11.2016 19:00 -3,1 C 88 % 1034,4 hPa 0,0 l/m 0,5 km/h (0 Bft) O-NO 0,00 h 0,000 mm 0,0 UV-I 0 W/m -4,8 C -3,1 C 1,1 km/h (1 Bft) 98,79 %
29.11.2016 20:00 -3,4 C 88 % 1034,6 hPa 0,0 l/m 0,9 km/h (0 Bft) O-NO 0,00 h 0,000 mm 0,0 UV-I 0 W/m -5,1 C -3,4 C 2,1 km/h (1 Bft) 98,37 %
29.11.2016 21:00 -3,8 C 91 % 1034,7 hPa 0,0 l/m 0,3 km/h (0 Bft) O-NO 0,00 h 0,000 mm 0,0 UV-I 0 W/m -5,1 C -3,8 C 0,7 km/h (0 Bft) 98,84 %
29.11.2016 22:00 -4,2 C 92 % 1034,6 hPa 0,0 l/m 0,5 km/h (0 Bft) O-NO 0,00 h 0,000 mm 0,0 UV-I 0 W/m -5,4 C -4,2 C 1,0 km/h (0 Bft) 98,33 %
29.11.2016 23:00 -4,4 C 92 % 1034,4 hPa 0,0 l/m 1,0 km/h (0 Bft) O 0,00 h 0,000 mm 0,0 UV-I 0 W/m -5,5 C -4,4 C 1,9 km/h (1 Bft) 98,49 %
30.11.2016 00:00 -4,6 C 93 % 1034,2 hPa 0,0 l/m 0,5 km/h (0 Bft) O 0,00 h 0,000 mm 0,0 UV-I 0 W/m -5,5 C -4,6 C 1,1 km/h (1 Bft) 97,60 %
30.11.2016 01:00 -4,8 C 94 % 1034,0 hPa 0,0 l/m 1,9 km/h (1 Bft) SO 0,00 h 0,000 mm 0,0 UV-I 0 W/m -5,6 C -4,8 C 3,1 km/h (1 Bft) 98,80 %
30.11.2016 02:00 -4,9 C 94 % 1033,8 hPa 0,0 l/m 1,1 km/h (0 Bft) SO 0,00 h 0,000 mm 0,0 UV-I 0 W/m -5,7 C -4,9 C 2,3 km/h (1 Bft) 97,84 %
30.11.2016 03:00 -5,3 C 94 % 1033,4 hPa 0,0 l/m 0,8 km/h (0 Bft) SO 0,00 h 0,000 mm 0,0 UV-I 0 W/m -6,1 C -5,3 C 1,8 km/h (1 Bft) 99,32 %
30.11.2016 04:00 -5,4 C 94 % 1033,6 hPa 0,0 l/m 0,9 km/h (0 Bft) SO 0,00 h 0,000 mm 0,0 UV-I 0 W/m -6,2 C -5,4 C 1,8 km/h (1 Bft) 97,42 %
30.11.2016 05:00 -5,4 C 94 % 1033,9 hPa 0,0 l/m 1,3 km/h (1 Bft) SO 0,00 h 0,000 mm 0,0 UV-I 0 W/m -6,2 C -5,4 C 3,3 km/h (1 Bft) 98,78 %
30.11.2016 06:00 -5,3 C 94 % 1033,9 hPa 0,0 l/m 2,6 km/h (1 Bft) S-SO 0,00 h 0,000 mm 0,0 UV-I 0 W/m -6,1 C -5,3 C 5,1 km/h (1 Bft) 97,80 %
30.11.2016 07:00 -5,2 C 92 % 1033,8 hPa 0,0 l/m 3,1 km/h (1 Bft) S-SW 0,03 h 0,000 mm 0,0 UV-I 9 W/m -6,3 C -5,2 C 5,1 km/h (1 Bft) 98,97 %
30.11.2016 08:00 -4,5 C 93 % 1034,0 hPa 0,0 l/m 4,3 km/h (1 Bft) SW 0,83 h 0,000 mm 0,0 UV-I 107 W/m -5,5 C -4,5 C 6,8 km/h (2 Bft) 98,52 %
30.11.2016 09:00 -3,0 C 91 % 1034,0 hPa 0,2 l/m 2,7 km/h (1 Bft) W-SW 1,00 h 0,025 mm 0,0 UV-I 238 W/m -4,3 C -3,0 C 4,9 km/h (1 Bft) 99,01 %
30.11.2016 10:00 -1,8 C 87 % 1034,0 hPa 0,0 l/m 2,9 km/h (1 Bft) W 0,97 h 0,077 mm 0,5 UV-I 249 W/m -3,6 C -1,8 C 5,5 km/h (1 Bft) 98,50 %
30.11.2016 11:00 -0,2 C 82 % 1033,4 hPa 0,0 l/m 4,7 km/h (1 Bft) W-SW 1,00 h 0,076 mm 0,6 UV-I 311 W/m -3,0 C -0,5 C 8,7 km/h (2 Bft) 98,64 %
30.11.2016 12:00 0,6 C 80 % 1032,8 hPa 0,0 l/m 3,2 km/h (1 Bft) W-NW 1,00 h 0,101 mm 0,5 UV-I 244 W/m -2,5 C 0,5 C 6,4 km/h (2 Bft) 98,16 %
30.11.2016 13:00 1,2 C 78 % 1032,0 hPa 0,0 l/m 6,1 km/h (2 Bft) W 0,43 h 0,077 mm 0,0 UV-I 163 W/m -2,1 C 0,5 C 10,1 km/h (2 Bft) 99,35 %
30.11.2016 14:00 1,6 C 77 % 1031,0 hPa 0,0 l/m 7,4 km/h (2 Bft) W 0,97 h 0,076 mm 0,0 UV-I 149 W/m -2,1 C 0,3 C 12,4 km/h (3 Bft) 98,20 %
30.11.2016 15:00 0,8 C 82 % 1030,5 hPa 0,0 l/m 2,3 km/h (1 Bft) W-NW 0,25 h 0,076 mm 0,0 UV-I 43 W/m -1,9 C 0,7 C 5,2 km/h (1 Bft) 99,23 %
30.11.2016 16:00 -0,0 C 86 % 1030,4 hPa 0,0 l/m 2,6 km/h (1 Bft) W 0,03 h 0,025 mm 0,0 UV-I 10 W/m -2,1 C -0,0 C 5,4 km/h (1 Bft) 98,12 %
30.11.2016 17:00 -0,3 C 87 % 1030,1 hPa 0,0 l/m 3,5 km/h (1 Bft) W 0,00 h 0,000 mm 0,0 UV-I 0 W/m -2,1 C -0,3 C 6,2 km/h (2 Bft) 99,16 %
30.11.2016 18:00 0,0 C 88 % 1030,1 hPa 0,0 l/m 6,4 km/h (2 Bft) W 0,00 h 0,000 mm 0,0 UV-I 0 W/m -1,7 C -0,8 C 11,2 km/h (2 Bft) 98,47 %
30.11.2016 19:00 0,7 C 87 % 1030,2 hPa 0,0 l/m 7,2 km/h (2 Bft) W-SW 0,00 h 0,000 mm 0,0 UV-I 0 W/m -1,2 C -0,4 C 12,1 km/h (2 Bft) 98,95 %
30.11.2016 20:00 1,5 C 83 % 1029,9 hPa 0,0 l/m 8,2 km/h (2 Bft) W 0,00 h 0,000 mm 0,0 UV-I 0 W/m -1,1 C -0,4 C 14,3 km/h (3 Bft) 98,77 %
30.11.2016 21:00 1,6 C 81 % 1029,7 hPa 0,0 l/m 7,7 km/h (2 Bft) W 0,00 h 0,026 mm 0,0 UV-I 0 W/m -1,3 C -0,1 C 12,8 km/h (3 Bft) 97,93 %
30.11.2016 22:00 2,6 C 70 % 1029,5 hPa 0,0 l/m 12,2 km/h (2 Bft) W 0,00 h 0,025 mm 0,0 UV-I 0 W/m -2,5 C -2,1 C 18,8 km/h (3 Bft) 98,86 %
30.11.2016 23:00 2,7 C 71 % 1029,2 hPa 0,0 l/m 10,8 km/h (2 Bft) W-SW 0,00 h 0,026 mm 0,0 UV-I 0 W/m -2,0 C -0,8 C 18,1 km/h (3 Bft) 97,89 %
01.12.2016 00:00 3,0 C 67 % 1029,0 hPa 0,0 l/m 13,0 km/h (3 Bft) W-SW 0,00 h 0,000 mm 0,0 UV-I 0 W/m -2,4 C -2,1 C 20,1 km/h (4 Bft) 99,15 %
01.12.2016 01:00 3,0 C 65 % 1028,9 hPa 0,0 l/m 14,2 km/h (3 Bft) W-SW 0,00 h 0,025 mm 0,0 UV-I 0 W/m -2,9 C -2,7 C 22,3 km/h (4 Bft) 97,94 %
01.12.2016 02:00 3,0 C 60 % 1028,6 hPa 0,0 l/m 14,3 km/h (3 Bft) W-SW 0,00 h 0,051 mm 0,0 UV-I 0 W/m -4,0 C -2,7 C 21,6 km/h (4 Bft) 99,46 %
01.12.2016 03:00 2,9 C 60 % 1028,5 hPa 0,0 l/m 13,0 km/h (3 Bft) W-SW 0,00 h 0,051 mm 0,0 UV-I 0 W/m -4,1 C -2,1 C 20,5 km/h (4 Bft) 97,60 %
01.12.2016 04:00 2,6 C 63 % 1028,0 hPa 0,0 l/m 8,6 km/h (2 Bft) SW 0,00 h 0,051 mm 0,0 UV-I 0 W/m -3,6 C 0,5 C 13,6 km/h (3 Bft) 99,37 %
01.12.2016 05:00 2,8 C 68 % 1027,5 hPa 0,0 l/m 10,9 km/h (2 Bft) SW 0,00 h 0,025 mm 0,0 UV-I 0 W/m -2,5 C -0,9 C 16,6 km/h (3 Bft) 97,22 %
01.12.2016 06:00 2,9 C 66 % 1027,0 hPa 0,0 l/m 12,8 km/h (3 Bft) W-SW 0,00 h 0,026 mm 0,0 UV-I 0 W/m -2,7 C -2,1 C 19,6 km/h (3 Bft) 99,36 %
01.12.2016 07:00 3,1 C 67 % 1027,0 hPa 0,0 l/m 12,6 km/h (3 Bft) W-SW 0,00 h 0,050 mm 0,0 UV-I 7 W/m -2,4 C -1,8 C 18,4 km/h (3 Bft) 98,12 %
01.12.2016 08:00 3,1 C 65 % 1026,8 hPa 0,0 l/m 14,0 km/h (3 Bft) W-SW 0,00 h 0,026 mm 0,0 UV-I 30 W/m -2,8 C -2,6 C 20,1 km/h (4 Bft) 98,71 %
01.12.2016 09:00 3,3 C 59 % 1026,4 hPa 0,0 l/m 13,9 km/h (3 Bft) W-SW 0,00 h 0,051 mm 0,0 UV-I 42 W/m -4,1 C -2,4 C 21,1 km/h (4 Bft) 98,42 %
01.12.2016 10:00 3,8 C 56 % 1026,0 hPa 0,0 l/m 14,2 km/h (3 Bft) W 0,00 h 0,076 mm 0,0 UV-I 53 W/m -4,1 C -1,9 C 21,4 km/h (4 Bft) 98,61 %
01.12.2016 11:00 4,6 C 48 % 1025,1 hPa 0,0 l/m 18,6 km/h (3 Bft) W-SW 0,00 h 0,076 mm 0,0 UV-I 95 W/m -5,5 C -2,9 C 28,4 km/h (4 Bft) 98,88 %
01.12.2016 12:00 4,9 C 51 % 1024,0 hPa 0,0 l/m 23,2 km/h (4 Bft) W-SW 0,00 h 0,127 mm 0,0 UV-I 112 W/m -4,6 C -4,5 C 36,7 km/h (5 Bft) 98,60 %
01.12.2016 13:00 4,6 C 64 % 1023,2 hPa 0,2 l/m 21,4 km/h (4 Bft) W-SW 0,00 h 0,152 mm 0,0 UV-I 64 W/m -1,6 C -4,2 C 32,7 km/h (5 Bft) 98,79 %
01.12.2016 14:00 4,4 C 70 % 1022,8 hPa 0,0 l/m 20,9 km/h (4 Bft) W-SW 0,00 h 0,102 mm 0,0 UV-I 45 W/m -0,7 C -4,3 C 31,7 km/h (5 Bft) 98,11 %
01.12.2016 15:00 4,2 C 69 % 1022,5 hPa 0,0 l/m 20,3 km/h (4 Bft) W-SW 0,03 h 0,076 mm 0,0 UV-I 31 W/m -1,1 C -4,3 C 30,4 km/h (5 Bft) 99,22 %
01.12.2016 16:00 3,9 C 64 % 1022,0 hPa 0,0 l/m 16,3 km/h (3 Bft) W-SW 0,03 h 0,076 mm 0,0 UV-I 6 W/m -2,3 C -2,8 C 24,8 km/h (4 Bft) 97,98 %
01.12.2016 17:00 3,8 C 60 % 1021,8 hPa 0,0 l/m 13,8 km/h (3 Bft) W-SW 0,00 h 0,051 mm 0,0 UV-I 0 W/m -3,3 C -1,6 C 20,8 km/h (4 Bft) 99,44 %
01.12.2016 18:00 4,1 C 58 % 1021,0 hPa 0,0 l/m 15,2 km/h (3 Bft) W-SW 0,00 h 0,051 mm 0,0 UV-I 0 W/m -3,5 C -2,0 C 22,9 km/h (4 Bft) 97,48 %
01.12.2016 19:00 4,0 C 56 % 1020,4 hPa 0,0 l/m 20,4 km/h (4 Bft) W-SW 0,00 h 0,051 mm 0,0 UV-I 0 W/m -3,9 C -4,5 C 30,3 km/h (5 Bft) 99,47 %
01.12.2016 20:00 3,4 C 64 % 1019,9 hPa 0,0 l/m 21,1 km/h (4 Bft) W-SW 0,00 h 0,076 mm 0,0 UV-I 0 W/m -2,8 C -5,7 C 30,5 km/h (5 Bft) 97,83 %
01.12.2016 21:00 3,8 C 73 % 1019,8 hPa 0,0 l/m 19,9 km/h (4 Bft) W-SW 0,00 h 0,051 mm 0,0 UV-I 0 W/m -0,7 C -4,6 C 30,5 km/h (5 Bft) 99,16 %
01.12.2016 22:00 2,7 C 76 % 1019,5 hPa 0,0 l/m 18,4 km/h (3 Bft) W-SW 0,00 h 0,051 mm 0,0 UV-I 0 W/m -1,1 C -5,4 C 27,4 km/h (4 Bft) 97,90 %
01.12.2016 23:00 2,8 C 77 % 1019,2 hPa 0,0 l/m 22,5 km/h (4 Bft) SW 0,00 h 0,025 mm 0,0 UV-I 0 W/m -0,8 C -7,0 C 33,8 km/h (5 Bft) 99,31 %
02.12.2016 00:00 3,1 C 79 % 1018,7 hPa 0,0 l/m 22,9 km/h (4 Bft) W-SW 0,00 h 0,000 mm 0,0 UV-I 0 W/m -0,1 C -6,7 C 35,1 km/h (5 Bft) 97,94 %
02.12.2016 01:00 3,5 C 77 % 1018,1 hPa 0,0 l/m 24,9 km/h (4 Bft) W-SW 0,00 h 0,051 mm 0,0 UV-I 0 W/m -0,1 C -6,8 C 37,4 km/h (5 Bft) 98,74 %
02.12.2016 02:00 3,8 C 75 % 1017,6 hPa 0,0 l/m 27,0 km/h (4 Bft) W-SW 0,00 h 0,051 mm 0,0 UV-I 0 W/m -0,2 C -7,2 C 41,3 km/h (6 Bft) 98,96 %
02.12.2016 03:00 4,1 C 77 % 1017,1 hPa 0,0 l/m 25,9 km/h (4 Bft) W-SW 0,00 h 0,050 mm 0,0 UV-I 0 W/m 0,4 C -6,4 C 39,7 km/h (6 Bft) 98,77 %
02.12.2016 04:00 4,2 C 77 % 1016,5 hPa 0,0 l/m 26,5 km/h (4 Bft) W-SW 0,00 h 0,051 mm 0,0 UV-I 0 W/m 0,5 C -6,4 C 40,2 km/h (6 Bft) 98,96 %
02.12.2016 05:00 4,2 C 77 % 1016,2 hPa 0,0 l/m 26,5 km/h (4 Bft) W-SW 0,00 h 0,051 mm 0,0 UV-I 0 W/m 0,6 C -6,4 C 42,2 km/h (6 Bft) 98,61 %
02.12.2016 06:00 4,2 C 79 % 1016,2 hPa 0,0 l/m 30,6 km/h (5 Bft) W-SW 0,00 h 0,051 mm 0,0 UV-I 0 W/m 0,9 C -7,7 C 47,3 km/h (6 Bft) 99,50 %
02.12.2016 07:00 3,7 C 85 % 1016,3 hPa 0,4 l/m 28,9 km/h (5 Bft) SW 0,00 h 0,051 mm 0,0 UV-I 4 W/m 1,4 C -7,9 C 43,6 km/h (6 Bft) 98,22 %
02.12.2016 08:00 3,9 C 85 % 1016,7 hPa 0,0 l/m 27,9 km/h (4 Bft) SW 0,00 h 0,025 mm 0,0 UV-I 15 W/m 1,6 C -7,3 C 42,0 km/h (6 Bft) 99,01 %
02.12.2016 09:00 4,3 C 83 % 1016,8 hPa 0,0 l/m 30,2 km/h (5 Bft) W-SW 0,00 h 0,051 mm 0,0 UV-I 40 W/m 1,7 C -7,3 C 46,0 km/h (6 Bft) 97,78 %
02.12.2016 10:00 4,8 C 81 % 1017,0 hPa 0,0 l/m 24,3 km/h (4 Bft) W-SW 0,00 h 0,051 mm 0,0 UV-I 39 W/m 1,8 C -4,9 C 36,2 km/h (5 Bft) 99,01 %
02.12.2016 11:00 4,7 C 85 % 1017,2 hPa 0,2 l/m 20,0 km/h (4 Bft) W-SW 0,00 h 0,050 mm 0,0 UV-I 44 W/m 2,4 C -3,6 C 29,3 km/h (5 Bft) 97,60 %
02.12.2016 12:00 4,3 C 91 % 1017,7 hPa 0,2 l/m 15,4 km/h (3 Bft) W-SW 0,00 h 0,051 mm 0,0 UV-I 35 W/m 3,0 C -1,8 C 23,4 km/h (4 Bft) 99,66 %
02.12.2016 13:00 4,4 C 91 % 1018,3 hPa 0,0 l/m 17,2 km/h (3 Bft) W-SW 0,00 h 0,026 mm 0,0 UV-I 23 W/m 3,0 C -2,7 C 26,2 km/h (4 Bft) 97,60 %
02.12.2016 14:00 4,1 C 92 % 1018,9 hPa 0,4 l/m 13,3 km/h (3 Bft) W-SW 0,00 h 0,025 mm 0,0 UV-I 16 W/m 3,0 C -0,9 C 21,0 km/h (4 Bft) 99,22 %
02.12.2016 15:00 3,9 C 93 % 1019,5 hPa 0,0 l/m 9,9 km/h (2 Bft) W-SW 0,00 h 0,025 mm 0,0 UV-I 9 W/m 2,8 C 1,0 C 14,9 km/h (3 Bft) 98,50 %
02.12.2016 16:00 3,6 C 91 % 1019,8 hPa 0,0 l/m 7,2 km/h (2 Bft) W 0,00 h 0,000 mm 0,0 UV-I 5 W/m 2,3 C 2,1 C 11,6 km/h (2 Bft) 98,84 %
02.12.2016 17:00 3,3 C 89 % 1020,3 hPa 0,0 l/m 5,8 km/h (2 Bft) W 0,00 h 0,000 mm 0,0 UV-I 0 W/m 1,6 C 3,0 C 11,2 km/h (2 Bft) 98,46 %
02.12.2016 18:00 3,0 C 88 % 1020,7 hPa 0,0 l/m 4,7 km/h (1 Bft) W 0,00 h 0,000 mm 0,0 UV-I 0 W/m 1,3 C 2,9 C 10,3 km/h (2 Bft) 99,00 %
02.12.2016 19:00 2,7 C 90 % 1021,3 hPa 0,0 l/m 5,4 km/h (1 Bft) W-SW 0,00 h 0,000 mm 0,0 UV-I 0 W/m 1,2 C 2,4 C 8,6 km/h (2 Bft) 98,84 %
02.12.2016 20:00 1,3 C 92 % 1021,6 hPa 0,0 l/m 2,2 km/h (1 Bft) W 0,00 h 0,000 mm 0,0 UV-I 0 W/m 0,2 C 1,3 C 4,1 km/h (1 Bft) 98,27 %
02.12.2016 21:00 0,3 C 94 % 1021,8 hPa 0,0 l/m 2,5 km/h (1 Bft) W-SW 0,00 h 0,000 mm 0,0 UV-I 0 W/m -0,5 C 0,3 C 4,2 km/h (1 Bft) 99,36 %
02.12.2016 22:00 -0,1 C 95 % 1021,9 hPa 0,0 l/m 1,3 km/h (1 Bft) W-SW 0,00 h 0,000 mm 0,0 UV-I 0 W/m -0,8 C -0,1 C 2,8 km/h (1 Bft) 97,70 %
02.12.2016 23:00 -0,6 C 96 % 1022,1 hPa 0,0 l/m 1,1 km/h (1 Bft) W-SW 0,00 h 0,000 mm 0,0 UV-I 0 W/m -1,2 C -0,6 C 2,1 km/h (1 Bft) 99,20 %
03.12.2016 00:00 -1,0 C 96 % 1022,2 hPa 0,0 l/m 0,3 km/h (0 Bft) W-SW 0,00 h 0,000 mm 0,0 UV-I 0 W/m -1,6 C -1,0 C 0,9 km/h (0 Bft) 94,68 %
03.12.2016 01:00 -1,6 C 97 % 1022,3 hPa 0,0 l/m 0,6 km/h (0 Bft) W-SW 0,00 h 0,000 mm 0,0 UV-I 0 W/m -2,0 C -1,6 C 1,2 km/h (1 Bft) 98,98 %
03.12.2016 02:00 -1,9 C 97 % 1022,5 hPa 0,0 l/m 1,9 km/h (1 Bft) O-NO 0,00 h 0,000 mm 0,0 UV-I 0 W/m -2,3 C -1,9 C 3,3 km/h (1 Bft) 97,82 %
03.12.2016 03:00 -1,9 C 97 % 1022,8 hPa 0,0 l/m 2,0 km/h (1 Bft) NO 0,00 h 0,000 mm 0,0 UV-I 0 W/m -2,3 C -1,9 C 3,5 km/h (1 Bft) 99,21 %
03.12.2016 04:00 -3,0 C 97 % 1022,9 hPa 0,0 l/m 1,4 km/h (1 Bft) NO 0,00 h 0,000 mm 0,0 UV-I 0 W/m -3,4 C -3,0 C 2,7 km/h (1 Bft) 97,95 %
03.12.2016 05:00 -2,6 C 97 % 1023,1 hPa 0,0 l/m 1,7 km/h (1 Bft) O-SO 0,00 h 0,000 mm 0,0 UV-I 0 W/m -3,0 C -2,6 C 3,6 km/h (1 Bft) 99,36 %
03.12.2016 06:00 -2,9 C 97 % 1023,3 hPa 0,0 l/m 2,7 km/h (1 Bft) NO 0,00 h 0,000 mm 0,0 UV-I 0 W/m -3,3 C -2,9 C 4,6 km/h (1 Bft) 97,88 %
03.12.2016 07:00 -3,4 C 96 % 1023,8 hPa 0,0 l/m 2,7 km/h (1 Bft) O-NO 0,03 h 0,000 mm 0,0 UV-I 8 W/m -3,9 C -3,4 C 4,9 km/h (1 Bft) 99,21 %
03.12.2016 08:00 -3,7 C 96 % 1024,3 hPa 0,0 l/m 3,9 km/h (1 Bft) O-NO 0,00 h 0,000 mm 0,0 UV-I 32 W/m -4,2 C -3,7 C 5,9 km/h (2 Bft) 98,57 %
03.12.2016 09:00 -3,5 C 96 % 1024,8 hPa 0,0 l/m 6,0 km/h (2 Bft) O-NO 0,10 h 0,000 mm 0,0 UV-I 92 W/m -4,0 C -3,8 C 8,8 km/h (2 Bft) 99,37 %
03.12.2016 10:00 -3,2 C 97 % 1025,4 hPa 0,0 l/m 7,0 km/h (2 Bft) O-NO 0,40 h 0,025 mm 0,4 UV-I 163 W/m -3,6 C -4,3 C 10,4 km/h (2 Bft) 97,60 %
03.12.2016 11:00 -2,3 C 97 % 1025,2 hPa 0,0 l/m 6,0 km/h (2 Bft) O-NO 0,77 h 0,051 mm 0,7 UV-I 281 W/m -2,7 C -2,7 C 8,7 km/h (2 Bft) 98,68 %
03.12.2016 12:00 -2,0 C 97 % 1024,9 hPa 0,0 l/m 8,3 km/h (2 Bft) O-NO 0,57 h 0,076 mm 0,5 UV-I 221 W/m -2,4 C -4,0 C 12,7 km/h (3 Bft) 98,66 %
03.12.2016 13:00 -1,4 C 97 % 1024,7 hPa 0,0 l/m 8,1 km/h (2 Bft) O-NO 1,00 h 0,077 mm 0,4 UV-I 255 W/m -1,8 C -3,1 C 12,6 km/h (3 Bft) 98,67 %
03.12.2016 14:00 0,1 C 92 % 1024,6 hPa 0,0 l/m 8,9 km/h (2 Bft) O-NO 1,00 h 0,076 mm 0,0 UV-I 195 W/m -1,0 C -2,4 C 13,4 km/h (3 Bft) 99,14 %
03.12.2016 15:00 0,6 C 88 % 1024,6 hPa 0,0 l/m 8,7 km/h (2 Bft) O-NO 1,00 h 0,076 mm 0,0 UV-I 84 W/m -1,2 C -1,6 C 13,2 km/h (3 Bft) 97,83 %
03.12.2016 16:00 -0,1 C 88 % 1024,8 hPa 0,0 l/m 7,4 km/h (2 Bft) O-NO 0,00 h 0,025 mm 0,0 UV-I 9 W/m -1,8 C -1,2 C 11,8 km/h (2 Bft) 99,11 %
03.12.2016 17:00 -0,8 C 91 % 1025,2 hPa 0,0 l/m 7,7 km/h (2 Bft) O-NO 0,00 h 0,000 mm 0,0 UV-I 0 W/m -2,1 C -2,2 C 11,7 km/h (2 Bft) 97,93 %
03.12.2016 18:00 -1,4 C 94 % 1025,3 hPa 0,0 l/m 7,6 km/h (2 Bft) NO 0,00 h 0,000 mm 0,0 UV-I 0 W/m -2,3 C -2,7 C 12,0 km/h (2 Bft) 98,94 %
03.12.2016 19:00 -1,6 C 94 % 1025,6 hPa 0,0 l/m 8,2 km/h (2 Bft) NO 0,00 h 0,000 mm 0,0 UV-I 0 W/m -2,5 C -3,5 C 13,1 km/h (3 Bft) 97,72 %
03.12.2016 20:00 -1,5 C 92 % 1025,8 hPa 0,0 l/m 10,5 km/h (2 Bft) O-NO 0,00 h 0,000 mm 0,0 UV-I 0 W/m -2,6 C -5,5 C 16,0 km/h (3 Bft) 99,32 %
03.12.2016 21:00 -1,7 C 91 % 1026,3 hPa 0,0 l/m 12,2 km/h (2 Bft) NO 0,00 h 0,000 mm 0,0 UV-I 0 W/m -2,9 C -7,0 C 17,9 km/h (3 Bft) 97,43 %
03.12.2016 22:00 -2,2 C 90 % 1026,5 hPa 0,0 l/m 8,7 km/h (2 Bft) O-NO 0,00 h 0,000 mm 0,0 UV-I 0 W/m -3,7 C -4,5 C 13,2 km/h (3 Bft) 99,30 %
03.12.2016 23:00 -2,7 C 89 % 1026,7 hPa 0,0 l/m 8,3 km/h (2 Bft) O-NO 0,00 h 0,000 mm 0,0 UV-I 0 W/m -4,2 C -4,7 C 12,6 km/h (3 Bft) 98,26 %
04.12.2016 00:00 -2,7 C 91 % 1026,8 hPa 0,0 l/m 7,9 km/h (2 Bft) NO 0,00 h 0,000 mm 0,0 UV-I 0 W/m -4,0 C -4,4 C 12,5 km/h (3 Bft) 98,67 %
04.12.2016 01:00 -2,8 C 91 % 1027,0 hPa 0,0 l/m 9,4 km/h (2 Bft) NO 0,00 h 0,000 mm 0,0 UV-I 0 W/m -4,0 C -5,9 C 14,2 km/h (3 Bft) 98,38 %
04.12.2016 02:00 -3,1 C 92 % 1027,2 hPa 0,0 l/m 7,8 km/h (2 Bft) NO 0,00 h 0,000 mm 0,0 UV-I 0 W/m -4,2 C -4,7 C 11,8 km/h (2 Bft) 98,17 %
04.12.2016 03:00 -3,5 C 93 % 1027,0 hPa 0,0 l/m 8,3 km/h (2 Bft) NO 0,00 h 0,000 mm 0,0 UV-I 0 W/m -4,4 C -5,7 C 12,8 km/h (3 Bft) 98,80 %
04.12.2016 04:00 -3,6 C 93 % 1027,0 hPa 0,0 l/m 6,0 km/h (2 Bft) O-NO 0,00 h 0,000 mm 0,0 UV-I 0 W/m -4,6 C -3,8 C 8,8 km/h (2 Bft) 98,60 %
04.12.2016 05:00 -3,7 C 93 % 1027,0 hPa 0,0 l/m 5,7 km/h (1 Bft) NO 0,00 h 0,000 mm 0,0 UV-I 0 W/m -4,7 C -3,9 C 9,2 km/h (2 Bft) 98,71 %
04.12.2016 06:00 -4,0 C 93 % 1027,2 hPa 0,0 l/m 3,9 km/h (1 Bft) O-NO 0,00 h 0,000 mm 0,0 UV-I 0 W/m -5,0 C -4,0 C 5,8 km/h (2 Bft) 98,47 %
04.12.2016 07:00 -4,2 C 94 % 1027,5 hPa 0,0 l/m 2,8 km/h (1 Bft) O-NO 0,13 h 0,000 mm 0,0 UV-I 10 W/m -5,1 C -4,2 C 4,6 km/h (1 Bft) 98,57 %
04.12.2016 08:00 -4,0 C 94 % 1028,1 hPa 0,0 l/m 3,3 km/h (1 Bft) NO 0,67 h 0,000 mm 0,0 UV-I 62 W/m -4,8 C -4,0 C 5,4 km/h (1 Bft) 97,95 %
04.12.2016 09:00 -2,9 C 92 % 1028,7 hPa 0,0 l/m 6,0 km/h (2 Bft) NO 0,87 h 0,025 mm 0,0 UV-I 162 W/m -4,0 C -3,4 C 9,0 km/h (2 Bft) 98,49 %
04.12.2016 10:00 -1,6 C 89 % 1028,9 hPa 0,2 l/m 8,8 km/h (2 Bft) O-NO 1,00 h 0,051 mm 0,5 UV-I 267 W/m -3,1 C -4,1 C 13,5 km/h (3 Bft) 99,46 %
04.12.2016 11:00 -0,5 C 87 % 1028,8 hPa 0,0 l/m 8,7 km/h (2 Bft) O-NO 1,00 h 0,076 mm 0,6 UV-I 324 W/m -2,4 C -2,8 C 14,0 km/h (3 Bft) 98,31 %
04.12.2016 12:00 0,2 C 86 % 1028,6 hPa 0,0 l/m 10,9 km/h (2 Bft) O-NO 1,00 h 0,102 mm 0,6 UV-I 319 W/m -1,9 C -3,9 C 16,1 km/h (3 Bft) 98,49 %
04.12.2016 13:00 0,6 C 85 % 1028,4 hPa 0,2 l/m 10,2 km/h (2 Bft) O-NO 1,00 h 0,127 mm 0,5 UV-I 250 W/m -1,5 C -2,8 C 15,4 km/h (3 Bft) 98,61 %
04.12.2016 14:00 0,8 C 85 % 1028,4 hPa 0,0 l/m 10,8 km/h (2 Bft) O-NO 1,00 h 0,102 mm 0,0 UV-I 177 W/m -1,5 C -3,1 C 16,4 km/h (3 Bft) 99,32 %
04.12.2016 15:00 0,3 C 85 % 1028,5 hPa 0,0 l/m 12,8 km/h (3 Bft) O-NO 1,00 h 0,076 mm 0,0 UV-I 64 W/m -1,9 C -5,2 C 17,8 km/h (3 Bft) 97,76 %
04.12.2016 16:00 -0,4 C 88 % 1028,8 hPa 0,0 l/m 12,5 km/h (3 Bft) O-NO 0,00 h 0,025 mm 0,0 UV-I 8 W/m -2,2 C -5,8 C 18,6 km/h (3 Bft) 99,04 %
04.12.2016 17:00 -1,1 C 90 % 1029,2 hPa 0,0 l/m 9,7 km/h (2 Bft) O-NO 0,00 h 0,026 mm 0,0 UV-I 0 W/m -2,5 C -4,2 C 15,0 km/h (3 Bft) 98,48 %
04.12.2016 18:00 -1,7 C 92 % 1029,4 hPa 0,0 l/m 6,1 km/h (2 Bft) O-NO 0,00 h 0,000 mm 0,0 UV-I 0 W/m -2,9 C -2,2 C 9,6 km/h (2 Bft) 99,31 %
04.12.2016 19:00 -2,1 C 93 % 1029,5 hPa 0,0 l/m 7,3 km/h (2 Bft) NO 0,00 h 0,000 mm 0,0 UV-I 0 W/m -3,0 C -3,2 C 11,4 km/h (2 Bft) 98,37 %
04.12.2016 20:00 -1,4 C 93 % 1029,6 hPa 0,0 l/m 15,3 km/h (3 Bft) O-NO 0,00 h 0,000 mm 0,0 UV-I 0 W/m -2,5 C -8,7 C 21,7 km/h (4 Bft) 98,58 %
04.12.2016 21:00 -1,4 C 92 % 1029,8 hPa 0,0 l/m 15,6 km/h (3 Bft) O-NO 0,00 h 0,000 mm 0,0 UV-I 0 W/m -2,5 C -9,0 C 21,9 km/h (4 Bft) 99,13 %
04.12.2016 22:00 -1,6 C 93 % 1029,8 hPa 0,0 l/m 14,9 km/h (3 Bft) O-NO 0,00 h 0,000 mm 0,0 UV-I 0 W/m -2,6 C -8,8 C 21,5 km/h (4 Bft) 98,77 %
04.12.2016 23:00 -1,6 C 93 % 1029,9 hPa 0,0 l/m 14,9 km/h (3 Bft) O-NO 0,00 h 0,000 mm 0,0 UV-I 0 W/m -2,6 C -8,8 C 21,1 km/h (4 Bft) 99,04 %
Min-Datum _ 30.11.16 01.12.16 02.12.16 - 28.11.16 - - - - - 01.12.16 04.12.16 28.11.16 03.12.16
_ Min-Zeit 04:06 11:58 05:38 - 00:26 - - - - - 11:58 20:36 00:26 00:02
Minimum _ -5,6 C 43 % 1015,9 hPa - 0,0 km/h (0 Bft) - - - - - -6,6 C -12,3 C 0,0 km/h (0 Bft) 13,33 %
Max-Datum _ 02.12.16 28.11.16 29.11.16 02.12.16 02.12.16 - 28.11.16 01.12.16 28.11.16 28.11.16 02.12.16 02.12.16 02.12.16 28.11.16
_ Max-Zeit 10:56 07:50 10:28 07:28 06:40 - 09:16 13:00 11:26 12:00 12:48 16:28 06:18 00:00
Maximum _ 5,0 C 97 % 1034,8 hPa 0,4 l/m 38,7 km/h
W-SW (5 Bft)
- 0,07 h 0,152 mm 0,7 UV-I 425 W/m 3,3 C 3,7 C 59,5 km/h
W-SW (7 Bft)
100,00 %
Durchschnitt _ -0,1 C 84 % 1026,6 hPa #2,0 l/m 8,1 km/h (2 Bft) W-SW #31:01 h #4,978 mm 0,5 UV-I 124 W/m -2,7 C -2,7 C 12,7 km/h (3 Bft) 98,57 %